createdAt,value
2022-11-29T00:00:03.386Z,84.85
2022-11-29T00:02:40.731Z,84.82
2022-11-29T00:05:09.359Z,85.12
2022-11-29T00:07:37.374Z,85.38
2022-11-29T00:10:08.314Z,85.16
2022-11-29T00:12:35.350Z,84.94
2022-11-29T00:15:03.346Z,85.32
2022-11-29T00:17:31.386Z,85.25
2022-11-29T00:19:59.338Z,85.37
2022-11-29T00:22:27.297Z,85.21
2022-11-29T00:24:55.252Z,85.42
2022-11-29T00:27:24.562Z,85.01
2022-11-29T00:29:52.317Z,84.68
2022-11-29T00:32:20.320Z,84.60
2022-11-29T00:34:48.299Z,84.04
2022-11-29T00:37:16.370Z,83.74
2022-11-29T00:39:44.333Z,83.96
2022-11-29T00:42:12.285Z,83.90
2022-11-29T00:44:41.787Z,83.75
2022-11-29T00:47:10.007Z,83.34
2022-11-29T00:49:37.952Z,83.66
2022-11-29T00:52:06.314Z,83.64
2022-11-29T00:54:34.372Z,82.90
2022-11-29T00:57:02.294Z,82.29
2022-11-29T00:59:30.498Z,82.53
2022-11-29T01:01:59.897Z,82.43
2022-11-29T01:04:27.897Z,82.55
2022-11-29T01:06:55.860Z,82.46
2022-11-29T01:09:23.977Z,82.90
2022-11-29T01:11:51.971Z,82.51
2022-11-29T01:14:19.935Z,82.32
2022-11-29T01:16:48.103Z,81.83
2022-11-29T01:19:17.513Z,81.82
2022-11-29T01:21:45.336Z,81.89
2022-11-29T01:24:13.207Z,81.91
2022-11-29T01:26:41.202Z,81.92
2022-11-29T01:29:09.147Z,81.91
2022-11-29T01:31:37.140Z,82.00
2022-11-29T01:34:07.293Z,81.75
2022-11-29T01:36:36.759Z,81.82
2022-11-29T01:39:06.759Z,81.62
2022-11-29T01:41:37.926Z,81.82
2022-11-29T01:44:08.163Z,81.87
2022-11-29T01:46:38.501Z,81.88
2022-11-29T01:49:11.341Z,81.90
2022-11-29T01:51:44.220Z,81.86
2022-11-29T01:54:13.655Z,81.52
2022-11-29T01:56:43.757Z,81.51
2022-11-29T01:59:15.138Z,81.60
2022-11-29T02:01:46.292Z,81.81
2022-11-29T02:04:15.240Z,81.64
2022-11-29T02:06:44.806Z,81.70
2022-11-29T02:09:20.242Z,81.49
2022-11-29T02:12:11.723Z,82.01
2022-11-29T02:14:56.902Z,81.86
2022-11-29T02:17:34.309Z,81.85
2022-11-29T02:20:36.533Z,81.99
2022-11-29T02:23:21.896Z,82.49
2022-11-29T02:26:05.591Z,83.21
2022-11-29T02:29:01.412Z,83.84
2022-11-29T02:32:02.160Z,84.22
2022-11-29T02:34:52.161Z,84.47
2022-11-29T02:37:41.176Z,84.68
2022-11-29T02:40:28.479Z,84.48
2022-11-29T02:43:48.170Z,84.96
2022-11-29T02:46:40.543Z,85.03
2022-11-29T02:49:19.746Z,84.82
2022-11-29T02:51:53.390Z,84.98
2022-11-29T02:54:27.657Z,84.80
2022-11-29T02:57:00.351Z,85.02
2022-11-29T02:59:44.263Z,85.17
2022-11-29T03:02:22.634Z,84.88
2022-11-29T03:04:59.515Z,84.98
2022-11-29T03:07:40.639Z,85.04
2022-11-29T03:10:18.960Z,85.09
2022-11-29T03:12:49.968Z,85.34
2022-11-29T03:15:28.508Z,85.54
2022-11-29T03:18:11.721Z,85.58
2022-11-29T03:20:51.682Z,85.51
2022-11-29T03:23:25.377Z,85.74
2022-11-29T03:25:58.543Z,85.82
2022-11-29T03:28:32.310Z,85.86
2022-11-29T03:31:07.086Z,85.74
2022-11-29T03:33:45.798Z,85.97
2022-11-29T03:36:24.542Z,86.26
2022-11-29T03:38:57.968Z,86.22
2022-11-29T03:41:31.804Z,86.44
2022-11-29T03:44:04.647Z,86.88
2022-11-29T03:46:39.064Z,86.94
2022-11-29T03:49:14.568Z,86.99
2022-11-29T03:51:54.466Z,86.92
2022-11-29T03:54:29.165Z,86.92
2022-11-29T03:56:57.637Z,87.23
2022-11-29T03:59:41.619Z,87.21
2022-11-29T04:02:40.020Z,87.02
2022-11-29T04:05:37.555Z,87.17
2022-11-29T04:08:44.204Z,87.32
2022-11-29T04:11:37.515Z,87.53
2022-11-29T04:14:32.368Z,87.14
2022-11-29T04:17:33.940Z,87.07
2022-11-29T04:20:23.374Z,87.42
2022-11-29T04:23:26.882Z,87.04
2022-11-29T04:26:21.547Z,87.40
2022-11-29T04:29:12.200Z,86.44
2022-11-29T04:32:02.663Z,85.63
2022-11-29T04:35:00.119Z,85.02
2022-11-29T04:37:50.468Z,84.42
2022-11-29T04:40:36.418Z,84.31
2022-11-29T04:43:34.407Z,84.22
2022-11-29T04:46:27.679Z,84.64
2022-11-29T04:49:07.685Z,84.05
2022-11-29T04:51:47.355Z,83.75
2022-11-29T04:54:28.177Z,83.69
2022-11-29T04:57:03.007Z,82.87
2022-11-29T04:59:36.782Z,82.48
2022-11-29T05:02:17.375Z,82.00
2022-11-29T05:04:51.920Z,81.87
2022-11-29T05:07:30.784Z,81.84
2022-11-29T05:10:08.064Z,81.23
2022-11-29T05:12:43.128Z,81.30
2022-11-29T05:15:51.018Z,81.42
2022-11-29T05:18:33.783Z,81.16
2022-11-29T05:21:09.824Z,81.04
2022-11-29T05:23:49.783Z,81.22
2022-11-29T05:26:23.979Z,80.88
2022-11-29T05:29:02.809Z,80.42
2022-11-29T05:31:46.979Z,80.44
2022-11-29T05:34:45.963Z,80.81
2022-11-29T05:37:28.024Z,80.41
2022-11-29T05:40:17.519Z,80.34
2022-11-29T05:43:02.306Z,80.71
2022-11-29T05:45:36.051Z,80.37
2022-11-29T05:48:12.224Z,80.58
2022-11-29T05:50:46.808Z,80.83
2022-11-29T05:53:25.766Z,80.83
2022-11-29T05:56:03.731Z,81.12
2022-11-29T05:58:44.624Z,81.12
2022-11-29T06:01:21.680Z,80.98
2022-11-29T06:03:58.878Z,80.56
2022-11-29T06:06:39.618Z,80.12
2022-11-29T06:09:16.604Z,80.28
2022-11-29T06:11:47.836Z,80.02
2022-11-29T06:14:35.105Z,79.91
2022-11-29T06:17:18.627Z,79.95
2022-11-29T06:20:11.147Z,79.94
2022-11-29T06:23:06.239Z,79.08
2022-11-29T06:25:49.671Z,78.23
2022-11-29T06:28:33.672Z,77.57
2022-11-29T06:31:13.188Z,77.55
2022-11-29T06:33:52.761Z,77.12
2022-11-29T06:36:28.036Z,76.96
2022-11-29T06:38:57.900Z,76.69
2022-11-29T06:41:26.741Z,76.68
2022-11-29T06:43:55.232Z,76.52
2022-11-29T06:46:34.381Z,76.46
2022-11-29T06:49:04.575Z,75.94
2022-11-29T06:51:38.944Z,74.71
2022-11-29T06:54:32.834Z,74.50
2022-11-29T06:57:13.057Z,73.87
2022-11-29T06:59:56.569Z,73.64
2022-11-29T07:02:35.668Z,72.14
2022-11-29T07:05:13.975Z,71.34
2022-11-29T07:07:43.158Z,70.94
2022-11-29T07:10:18.261Z,69.88
2022-11-29T07:12:47.354Z,68.42
2022-11-29T07:15:17.177Z,67.78
2022-11-29T07:17:57.283Z,67.22
2022-11-29T07:20:35.409Z,67.39
2022-11-29T07:23:14.084Z,67.10
2022-11-29T07:25:57.162Z,67.23
2022-11-29T07:28:39.211Z,65.98
2022-11-29T07:31:13.237Z,65.12
2022-11-29T07:33:50.165Z,63.96
2022-11-29T07:36:28.276Z,63.75
2022-11-29T07:39:04.990Z,63.50
2022-11-29T07:41:41.115Z,63.70
2022-11-29T07:44:17.150Z,62.94
2022-11-29T07:46:45.407Z,62.98
2022-11-29T07:49:13.451Z,63.14
2022-11-29T07:51:41.506Z,62.21
2022-11-29T07:54:11.861Z,62.82
2022-11-29T07:56:41.274Z,62.94
2022-11-29T07:59:11.065Z,63.20
2022-11-29T08:01:39.163Z,63.18
2022-11-29T08:04:08.248Z,62.94
2022-11-29T08:06:36.776Z,62.81
2022-11-29T08:09:06.839Z,62.32
2022-11-29T08:11:34.875Z,62.20
2022-11-29T08:14:05.696Z,62.65
2022-11-29T08:16:34.018Z,61.12
2022-11-29T08:19:02.001Z,59.84
2022-11-29T08:21:30.080Z,59.03
2022-11-29T08:23:58.042Z,57.19
2022-11-29T08:26:31.253Z,56.45
2022-11-29T08:28:59.682Z,55.74
2022-11-29T08:31:29.083Z,54.96
2022-11-29T08:33:57.172Z,54.72
2022-11-29T08:36:25.147Z,54.73
2022-11-29T08:39:01.257Z,54.74
2022-11-29T08:41:31.918Z,55.02
2022-11-29T08:43:59.841Z,54.78
2022-11-29T08:46:49.151Z,54.35
2022-11-29T08:49:17.542Z,54.02
2022-11-29T08:51:45.527Z,53.75
2022-11-29T08:54:12.759Z,52.47
2022-11-29T08:59:31.958Z,52.62
2022-11-29T09:02:01.355Z,53.97
2022-11-29T09:04:29.523Z,52.61
2022-11-29T09:06:57.453Z,53.75
2022-11-29T09:09:25.410Z,55.16
2022-11-29T09:11:53.323Z,55.60
2022-11-29T09:14:22.883Z,56.89
2022-11-29T09:16:50.921Z,56.84
2022-11-29T09:19:20.399Z,56.88
2022-11-29T09:21:48.317Z,57.00
2022-11-29T09:24:16.431Z,57.43
2022-11-29T09:26:48.211Z,57.45
2022-11-29T09:29:17.393Z,57.29
2022-11-29T09:31:45.330Z,56.49
2022-11-29T09:34:13.766Z,55.27
2022-11-29T09:36:46.218Z,55.16
2022-11-29T09:39:14.198Z,54.36
2022-11-29T09:41:58.670Z,53.57
2022-11-29T09:44:37.163Z,51.70
2022-11-29T09:47:20.287Z,51.18
2022-11-29T09:49:59.758Z,50.77
2022-11-29T09:52:40.008Z,50.56
2022-11-29T09:55:26.877Z,48.95
2022-11-29T09:57:56.446Z,48.68
2022-11-29T10:00:26.091Z,47.06
2022-11-29T10:03:00.524Z,46.87
2022-11-29T10:05:32.970Z,44.63
2022-11-29T10:08:07.717Z,45.14
2022-11-29T10:10:41.659Z,44.76
2022-11-29T10:13:18.397Z,45.99
2022-11-29T10:15:51.888Z,46.56
2022-11-29T10:18:24.179Z,48.55
2022-11-29T10:20:54.292Z,49.31
2022-11-29T10:23:27.750Z,50.94
2022-11-29T10:25:57.691Z,51.81
2022-11-29T10:28:30.630Z,52.15
2022-11-29T10:31:04.362Z,51.62
2022-11-29T10:33:36.289Z,53.68
2022-11-29T10:36:08.760Z,54.05
2022-11-29T10:38:38.097Z,54.98
2022-11-29T10:41:09.125Z,54.97
2022-11-29T10:43:38.059Z,55.17
2022-11-29T10:46:07.576Z,56.11
2022-11-29T10:48:35.937Z,55.22
2022-11-29T10:51:03.940Z,55.13
2022-11-29T10:53:37.088Z,55.81
2022-11-29T10:56:09.661Z,56.40
2022-11-29T10:58:37.707Z,56.55
2022-11-29T11:01:07.814Z,55.64
2022-11-29T11:03:39.405Z,55.71
2022-11-29T11:06:11.988Z,54.27
2022-11-29T11:08:44.453Z,53.10
2022-11-29T11:11:15.263Z,50.78
2022-11-29T11:13:43.388Z,49.50
2022-11-29T11:16:17.896Z,49.27
2022-11-29T11:18:47.145Z,49.85
2022-11-29T11:21:15.878Z,50.15
2022-11-29T11:23:53.462Z,48.28
2022-11-29T11:26:24.098Z,48.33
2022-11-29T11:28:56.289Z,48.83
2022-11-29T11:31:30.618Z,48.03
2022-11-29T11:33:58.649Z,48.97
2022-11-29T11:36:28.309Z,49.62
2022-11-29T11:38:59.168Z,49.53
2022-11-29T11:41:44.705Z,52.09
2022-11-29T11:44:48.673Z,53.58
2022-11-29T11:47:19.521Z,54.59
2022-11-29T11:49:50.245Z,55.51
2022-11-29T11:52:22.358Z,56.92
2022-11-29T11:54:54.740Z,55.16
2022-11-29T11:57:26.561Z,54.34
2022-11-29T12:00:06.407Z,54.03
2022-11-29T12:02:41.677Z,53.78
2022-11-29T12:05:15.787Z,55.29
2022-11-29T12:10:40.501Z,56.82
2022-11-29T12:13:19.298Z,56.63
2022-11-29T12:15:50.952Z,55.74
2022-11-29T12:18:25.585Z,56.68
2022-11-29T12:20:58.277Z,55.48
2022-11-29T12:23:34.299Z,55.27
2022-11-29T12:26:08.093Z,55.75
2022-11-29T12:28:41.275Z,55.78
2022-11-29T12:31:24.721Z,55.98
2022-11-29T12:34:09.180Z,56.01
2022-11-29T12:36:48.067Z,57.01
2022-11-29T12:39:28.080Z,57.46
2022-11-29T12:42:00.512Z,55.46
2022-11-29T12:44:43.106Z,55.49
2022-11-29T12:47:39.088Z,54.60
2022-11-29T12:50:29.147Z,55.54
2022-11-29T12:53:10.568Z,56.18
2022-11-29T12:55:50.108Z,56.73
2022-11-29T12:58:27.758Z,57.52
2022-11-29T13:01:05.383Z,57.36
2022-11-29T13:03:44.365Z,57.52
2022-11-29T13:06:28.552Z,57.50
2022-11-29T13:09:15.491Z,57.09
2022-11-29T13:11:50.348Z,56.67
2022-11-29T13:17:28.042Z,55.54
2022-11-29T13:20:00.008Z,55.39
2022-11-29T13:22:33.490Z,56.69
2022-11-29T13:25:04.709Z,55.57
2022-11-29T13:27:36.000Z,57.15
2022-11-29T13:30:06.141Z,57.75
2022-11-29T13:32:39.770Z,58.29
2022-11-29T13:35:17.292Z,57.63
2022-11-29T13:37:54.935Z,59.04
2022-11-29T13:40:33.474Z,59.38
2022-11-29T13:43:11.808Z,60.24
2022-11-29T13:45:47.392Z,60.41
2022-11-29T13:48:37.640Z,60.79
2022-11-29T13:51:38.187Z,60.93
2022-11-29T13:54:07.919Z,61.19
2022-11-29T13:56:46.516Z,60.96
2022-11-29T13:59:20.734Z,61.51
2022-11-29T14:01:51.591Z,62.26
2022-11-29T14:04:32.189Z,62.99
2022-11-29T14:07:09.916Z,62.82
2022-11-29T14:09:58.698Z,63.55
2022-11-29T14:12:37.711Z,64.01
2022-11-29T14:15:18.875Z,64.75
2022-11-29T14:17:50.225Z,64.62
2022-11-29T14:21:01.556Z,66.12
2022-11-29T14:23:37.973Z,65.80
2022-11-29T14:26:29.568Z,65.77
2022-11-29T14:28:59.323Z,65.99
2022-11-29T14:31:55.998Z,66.52
2022-11-29T14:34:35.764Z,67.46
2022-11-29T14:37:16.967Z,68.14
2022-11-29T14:39:47.875Z,68.54
2022-11-29T14:42:18.758Z,68.16
2022-11-29T14:44:52.095Z,68.75
2022-11-29T14:47:29.753Z,69.37
2022-11-29T14:50:00.167Z,70.34
2022-11-29T14:52:32.481Z,69.84
2022-11-29T14:55:04.413Z,70.19
2022-11-29T14:57:53.982Z,70.31
2022-11-29T15:00:23.544Z,71.03
2022-11-29T15:02:54.178Z,70.97
2022-11-29T15:05:29.054Z,72.24
2022-11-29T15:08:10.466Z,72.67
2022-11-29T15:10:42.320Z,71.99
2022-11-29T15:13:14.004Z,72.40
2022-11-29T15:16:08.876Z,72.01
2022-11-29T15:18:59.771Z,72.39
2022-11-29T15:21:36.560Z,71.88
2022-11-29T15:24:13.026Z,72.34
2022-11-29T15:26:55.290Z,72.01
2022-11-29T15:29:23.607Z,71.82
2022-11-29T15:31:55.268Z,72.53
2022-11-29T15:34:30.600Z,72.53
2022-11-29T15:36:58.670Z,73.87
2022-11-29T15:39:31.347Z,72.78
2022-11-29T15:42:04.285Z,73.09
2022-11-29T15:44:33.819Z,73.71
2022-11-29T15:47:22.156Z,73.08
2022-11-29T15:49:50.363Z,73.97
2022-11-29T15:52:25.461Z,73.82
2022-11-29T15:55:01.772Z,73.45
2022-11-29T15:57:35.543Z,73.85
2022-11-29T16:00:06.291Z,73.60
2022-11-29T16:02:37.169Z,74.58
2022-11-29T16:05:15.018Z,74.80
2022-11-29T16:07:44.373Z,74.86
2022-11-29T16:10:14.569Z,75.29
2022-11-29T16:12:53.989Z,75.67
2022-11-29T16:15:31.188Z,74.96
2022-11-29T16:18:04.686Z,74.71
2022-11-29T16:20:32.989Z,75.40
2022-11-29T16:23:14.436Z,75.02
2022-11-29T16:25:58.820Z,74.40
2022-11-29T16:28:31.194Z,75.36
2022-11-29T16:31:00.139Z,75.48
2022-11-29T16:33:28.588Z,74.77
2022-11-29T16:36:05.879Z,74.73
2022-11-29T16:38:34.291Z,74.81
2022-11-29T16:41:08.776Z,74.69
2022-11-29T16:43:53.662Z,74.93
2022-11-29T16:46:33.117Z,73.98
2022-11-29T16:49:03.733Z,75.06
2022-11-29T16:51:39.815Z,75.48
2022-11-29T16:54:23.332Z,74.29
2022-11-29T16:56:54.053Z,74.33
2022-11-29T16:59:27.920Z,74.67
2022-11-29T17:01:57.139Z,74.42
2022-11-29T17:04:25.513Z,74.39
2022-11-29T17:06:54.611Z,73.44
2022-11-29T17:09:27.977Z,73.71
2022-11-29T17:11:59.802Z,73.64
2022-11-29T17:14:28.536Z,74.84
2022-11-29T17:16:56.892Z,74.09
2022-11-29T17:19:25.401Z,73.88
2022-11-29T17:21:53.679Z,74.65
2022-11-29T17:24:23.804Z,74.49
2022-11-29T17:26:52.210Z,74.62
2022-11-29T17:29:21.509Z,74.39
2022-11-29T17:31:50.708Z,74.67
2022-11-29T17:34:18.590Z,73.88
2022-11-29T17:36:46.735Z,73.73
2022-11-29T17:39:15.800Z,74.86
2022-11-29T17:41:43.741Z,74.92
2022-11-29T17:44:11.696Z,74.01
2022-11-29T17:46:41.262Z,74.53
2022-11-29T17:49:10.660Z,74.76
2022-11-29T17:51:51.802Z,75.26
2022-11-29T17:54:21.093Z,75.25
2022-11-29T17:56:49.368Z,75.38
2022-11-29T17:59:17.428Z,75.09
2022-11-29T18:01:48.148Z,74.83
2022-11-29T18:04:16.530Z,74.18
2022-11-29T18:06:49.516Z,75.23
2022-11-29T18:09:18.866Z,75.29
2022-11-29T18:11:49.286Z,75.44
2022-11-29T18:14:19.778Z,74.98
2022-11-29T18:16:49.247Z,75.39
2022-11-29T18:19:19.832Z,75.11
2022-11-29T18:21:47.950Z,75.49
2022-11-29T18:24:16.257Z,75.42
2022-11-29T18:26:44.704Z,75.26
2022-11-29T18:29:12.726Z,74.82
2022-11-29T18:31:42.382Z,75.29
2022-11-29T18:34:14.152Z,74.79
2022-11-29T18:36:44.297Z,74.74
2022-11-29T18:39:15.131Z,74.25
2022-11-29T18:41:44.599Z,74.84
2022-11-29T18:44:14.346Z,74.33
2022-11-29T18:46:44.015Z,74.83
2022-11-29T18:49:15.203Z,74.27
2022-11-29T18:51:45.000Z,75.31
2022-11-29T18:54:13.855Z,74.71
2022-11-29T18:56:42.348Z,74.82
2022-11-29T18:59:12.333Z,74.32
2022-11-29T19:01:42.814Z,75.25
2022-11-29T19:04:14.780Z,74.61
2022-11-29T19:06:43.450Z,75.22
2022-11-29T19:09:14.949Z,74.79
2022-11-29T19:11:43.359Z,74.09
2022-11-29T19:14:13.102Z,74.57
2022-11-29T19:16:43.210Z,74.28
2022-11-29T19:19:11.333Z,74.97
2022-11-29T19:21:41.419Z,74.76
2022-11-29T19:24:14.998Z,74.86
2022-11-29T19:26:44.849Z,74.11
2022-11-29T19:29:14.050Z,74.76
2022-11-29T19:31:42.640Z,75.12
2022-11-29T19:34:10.916Z,74.58
2022-11-29T19:36:43.311Z,74.93
2022-11-29T19:39:13.216Z,74.83
2022-11-29T19:41:42.378Z,75.58
2022-11-29T19:44:12.808Z,75.49
2022-11-29T19:46:48.739Z,75.66
2022-11-29T19:49:19.327Z,76.12
2022-11-29T19:52:02.213Z,76.22
2022-11-29T19:54:30.125Z,76.54
2022-11-29T19:57:04.076Z,77.13
2022-11-29T19:59:33.436Z,77.50
2022-11-29T20:02:05.070Z,77.06
2022-11-29T20:04:37.606Z,77.77
2022-11-29T20:07:06.935Z,77.45
2022-11-29T20:09:34.598Z,77.17
2022-11-29T20:12:02.547Z,77.71
2022-11-29T20:14:30.470Z,77.53
2022-11-29T20:16:58.356Z,76.93
2022-11-29T20:19:28.064Z,77.11
2022-11-29T20:21:56.060Z,76.90
2022-11-29T20:24:32.188Z,76.67
2022-11-29T20:27:02.863Z,77.35
2022-11-29T20:29:32.787Z,77.17
2022-11-29T20:32:00.730Z,77.40
2022-11-29T20:34:29.124Z,77.43
2022-11-29T20:37:12.930Z,76.88
2022-11-29T20:39:48.112Z,76.81
2022-11-29T20:42:44.396Z,76.99
2022-11-29T20:45:14.834Z,76.48
2022-11-29T20:47:50.224Z,77.09
2022-11-29T20:50:23.259Z,76.54
2022-11-29T20:53:03.500Z,76.87
2022-11-29T20:55:32.807Z,76.67
2022-11-29T20:58:00.526Z,77.39
2022-11-29T21:00:28.454Z,77.60
2022-11-29T21:02:56.407Z,77.87
2022-11-29T21:05:24.395Z,77.23
2022-11-29T21:07:52.707Z,77.37
2022-11-29T21:10:21.917Z,78.03
2022-11-29T21:12:51.970Z,77.83
2022-11-29T21:15:20.827Z,78.21
2022-11-29T21:17:49.401Z,78.78
2022-11-29T21:20:22.445Z,77.93
2022-11-29T21:22:57.994Z,78.66
2022-11-29T21:25:37.572Z,78.10
2022-11-29T21:28:13.067Z,79.18
2022-11-29T21:30:42.229Z,78.90
2022-11-29T21:33:11.266Z,78.51
2022-11-29T21:35:40.979Z,78.45
2022-11-29T21:38:14.669Z,78.66
2022-11-29T21:40:42.639Z,79.20
2022-11-29T21:43:11.959Z,78.53
2022-11-29T21:45:39.755Z,78.56
2022-11-29T21:48:28.619Z,78.48
2022-11-29T21:50:57.661Z,79.03
2022-11-29T21:53:25.625Z,79.23
2022-11-29T21:55:57.863Z,79.77
2022-11-29T21:58:29.261Z,79.24
2022-11-29T22:00:57.263Z,79.05
2022-11-29T22:03:25.173Z,79.85
2022-11-29T22:05:53.117Z,79.83
2022-11-29T22:08:21.057Z,79.54
2022-11-29T22:10:49.009Z,79.80
2022-11-29T22:13:16.952Z,79.52
2022-11-29T22:15:46.305Z,79.78
2022-11-29T22:18:14.242Z,80.18
2022-11-29T22:20:42.191Z,80.18
2022-11-29T22:23:10.147Z,79.75
2022-11-29T22:25:38.098Z,79.66
2022-11-29T22:28:06.126Z,80.41
2022-11-29T22:30:35.860Z,80.24
2022-11-29T22:33:10.289Z,80.72
2022-11-29T22:35:44.019Z,80.85
2022-11-29T22:38:11.976Z,80.05
2022-11-29T22:40:40.573Z,80.76
2022-11-29T22:43:08.527Z,80.29
2022-11-29T22:45:36.479Z,80.04
2022-11-29T22:48:06.183Z,79.80
2022-11-29T22:50:34.209Z,80.15
2022-11-29T22:53:02.205Z,79.37
2022-11-29T22:55:30.207Z,79.43
2022-11-29T22:57:58.179Z,79.43
2022-11-29T23:00:26.258Z,79.47
2022-11-29T23:02:57.628Z,79.02
2022-11-29T23:05:32.128Z,79.64
2022-11-29T23:08:00.687Z,79.97
2022-11-29T23:10:28.733Z,78.08
2022-11-29T23:12:56.655Z,78.77
2022-11-29T23:15:24.717Z,77.03
2022-11-29T23:17:53.355Z,77.86
2022-11-29T23:20:21.371Z,77.35
2022-11-29T23:22:50.786Z,78.04
2022-11-29T23:25:18.958Z,77.47
2022-11-29T23:27:46.903Z,77.08
2022-11-29T23:30:15.545Z,77.11
2022-11-29T23:32:43.518Z,77.05
2022-11-29T23:35:11.433Z,77.22
2022-11-29T23:37:40.571Z,78.05
2022-11-29T23:40:11.418Z,77.94
2022-11-29T23:42:42.423Z,78.27
2022-11-29T23:45:12.994Z,78.78
2022-11-29T23:47:40.961Z,78.08
2022-11-29T23:50:10.715Z,78.54
2022-11-29T23:52:39.039Z,77.93
2022-11-29T23:55:07.747Z,78.47
2022-11-29T23:57:37.008Z,78.63
